Time;durP1;ratioP1;P1;durP2;ratioP2;P2;SDS_P1;SDS_P2;PMS_P1;PMS_P2;Temp;Humidity;BMP_temperature;BMP_pressure;BME280_temperature;BME280_humidity;BME280_pressure;Samples;Min_cycle;Max_cycle;Signal;HPM_P1;HPM_P2
2022/11/12 00:00:10;;;;;;;14.10;9.32;;;;;;;;;;5033035;28;20660;-63
2022/11/12 00:02:35;;;;;;;20.07;10.90;;;;;;;;;;5034373;28;20226;-63
2022/11/12 00:05:00;;;;;;;16.77;10.63;;;;;;;;;;5033917;28;20616;-64
2022/11/12 00:07:26;;;;;;;14.02;9.15;;;;;;;;;;5033239;28;20208;-63
2022/11/12 00:09:51;;;;;;;15.27;8.90;;;;;;;;;;5034368;28;20222;-63
2022/11/12 00:12:16;;;;;;;14.52;9.65;;;;;;;;;;5033687;28;20212;-63
2022/11/12 00:14:41;;;;;;;15.30;8.90;;;;;;;;;;5033085;28;20238;-63
2022/11/12 00:17:07;;;;;;;15.00;8.10;;;;;;;;;;5033758;28;20215;-63
2022/11/12 00:19:32;;;;;;;13.45;8.68;;;;;;;;;;5034195;28;20231;-63
2022/11/12 00:21:57;;;;;;;14.57;8.93;;;;;;;;;;5033147;28;20631;-63
2022/11/12 00:24:22;;;;;;;12.45;8.27;;;;;;;;;;5033416;28;20291;-63
2022/11/12 00:26:48;;;;;;;14.73;7.97;;;;;;;;;;5033669;28;20212;-63
2022/11/12 00:29:13;;;;;;;13.93;7.88;;;;;;;;;;5032648;28;20218;-63
2022/11/12 00:31:38;;;;;;;11.77;7.80;;;;;;;;;;5033942;28;20239;-63
2022/11/12 00:34:04;;;;;;;13.27;8.25;;;;;;;;;;5033314;28;20323;-64
2022/11/12 00:36:29;;;;;;;14.98;8.13;;;;;;;;;;5032763;28;20208;-63
2022/11/12 00:38:54;;;;;;;16.30;9.15;;;;;;;;;;5015526;28;20215;-63
2022/11/12 00:41:20;;;;;;;14.65;8.48;;;;;;;;;;5033300;28;21018;-63
2022/11/12 00:43:45;;;;;;;11.75;7.88;;;;;;;;;;5032802;28;20234;-63
2022/11/12 00:46:10;;;;;;;15.40;8.32;;;;;;;;;;5033069;28;20226;-63
2022/11/12 00:48:35;;;;;;;14.40;9.00;;;;;;;;;;5033530;28;20231;-63
2022/11/12 00:51:02;;;;;;;15.45;8.50;;;;;;;;;;5032356;28;20231;-63
2022/11/12 00:53:27;;;;;;;12.73;7.77;;;;;;;;;;5015289;28;20984;-63
2022/11/12 00:55:56;;;;;;;11.30;7.57;;;;;;;;;;5033399;28;20208;-63
2022/11/12 00:58:22;;;;;;;15.63;7.97;;;;;;;;;;4998127;28;20212;-63
2022/11/12 01:00:47;;;;;;;15.25;8.40;;;;;;;;;;5033234;28;20575;-63
2022/11/12 01:03:12;;;;;;;12.40;8.23;;;;;;;;;;5032031;28;20219;-64
2022/11/12 01:05:37;;;;;;;12.68;8.23;;;;;;;;;;5033333;28;20223;-63
2022/11/12 01:08:03;;;;;;;16.40;8.20;;;;;;;;;;5032586;28;20267;-63
2022/11/12 01:10:28;;;;;;;13.70;8.60;;;;;;;;;;5032283;28;20273;-63
2022/11/12 01:12:53;;;;;;;13.10;7.90;;;;;;;;;;5032975;28;20258;-63
2022/11/12 01:15:18;;;;;;;12.20;7.67;;;;;;;;;;5032456;28;20220;-63
2022/11/12 01:17:44;;;;;;;13.07;8.53;;;;;;;;;;5032303;28;20211;-63
2022/11/12 01:20:09;;;;;;;13.65;8.80;;;;;;;;;;5032443;28;20216;-63
2022/11/12 01:22:34;;;;;;;15.17;8.50;;;;;;;;;;5032835;28;20224;-63
2022/11/12 01:25:00;;;;;;;13.90;7.80;;;;;;;;;;5031908;28;20220;-63
2022/11/12 01:27:25;;;;;;;12.40;7.77;;;;;;;;;;5031943;28;20675;-63
2022/11/12 01:29:50;;;;;;;13.03;8.33;;;;;;;;;;5032977;28;20222;-63
2022/11/12 01:32:15;;;;;;;11.83;7.90;;;;;;;;;;5031579;28;20226;-63
2022/11/12 01:34:40;;;;;;;11.85;7.80;;;;;;;;;;5032728;28;20228;-63
2022/11/12 01:37:06;;;;;;;10.67;7.83;;;;;;;;;;5032163;28;20556;-64
2022/11/12 01:39:31;;;;;;;11.87;7.97;;;;;;;;;;5031699;28;20265;-63
2022/11/12 01:41:56;;;;;;;12.20;8.27;;;;;;;;;;5032134;28;20678;-63
2022/11/12 01:44:23;;;;;;;13.57;8.50;;;;;;;;;;5032075;28;20223;-63
2022/11/12 01:46:54;;;;;;;12.57;7.80;;;;;;;;;;5031724;28;20215;-63
2022/11/12 01:49:21;;;;;;;13.77;8.10;;;;;;;;;;5044810;28;20561;-63
2022/11/12 01:51:47;;;;;;;14.70;9.40;;;;;;;;;;5047735;28;20670;-63
2022/11/12 01:54:12;;;;;;;16.93;9.67;;;;;;;;;;5046564;28;20254;-63
2022/11/12 01:56:37;;;;;;;15.13;8.95;;;;;;;;;;5047749;28;20223;-63
2022/11/12 01:59:03;;;;;;;13.17;8.30;;;;;;;;;;5032057;28;20631;-63
2022/11/12 02:01:29;;;;;;;11.17;7.90;;;;;;;;;;5018621;28;20236;-63
2022/11/12 02:03:54;;;;;;;12.02;8.05;;;;;;;;;;5012529;28;20220;-63
2022/11/12 02:06:20;;;;;;;16.50;9.17;;;;;;;;;;5012176;28;20728;-63
2022/11/12 02:08:45;;;;;;;12.47;8.20;;;;;;;;;;4994435;28;20219;-63
2022/11/12 02:11:10;;;;;;;15.73;9.20;;;;;;;;;;4994422;28;20864;-63
2022/11/12 02:16:19;;;;;;;15.40;9.88;;;;;;;;;;4996994;28;20300;-63
2022/11/12 02:18:44;;;;;;;12.38;9.13;;;;;;;;;;4995058;28;20307;-63
2022/11/12 02:21:09;;;;;;;14.33;8.47;;;;;;;;;;5011429;28;20583;-63
2022/11/12 02:23:36;;;;;;;13.07;9.13;;;;;;;;;;5012233;28;20221;-63
2022/11/12 02:26:01;;;;;;;14.40;8.23;;;;;;;;;;5011561;28;20245;-63
2022/11/12 02:28:27;;;;;;;11.93;8.07;;;;;;;;;;5011477;28;20344;-63
2022/11/12 02:30:52;;;;;;;11.83;7.63;;;;;;;;;;5012377;28;20227;-63
2022/11/12 02:33:18;;;;;;;14.27;8.63;;;;;;;;;;5011572;28;20739;-63
2022/11/12 02:35:43;;;;;;;12.25;8.10;;;;;;;;;;5011416;28;20227;-63
2022/11/12 02:38:08;;;;;;;11.50;8.10;;;;;;;;;;5011840;28;20222;-63
2022/11/12 02:40:33;;;;;;;16.23;9.32;;;;;;;;;;5012236;28;20217;-63
2022/11/12 02:42:59;;;;;;;13.27;8.77;;;;;;;;;;5011311;28;20671;-63
2022/11/12 02:45:24;;;;;;;13.80;8.53;;;;;;;;;;5011708;28;20209;-63
2022/11/12 02:47:49;;;;;;;13.47;8.00;;;;;;;;;;5012106;28;20221;-63
2022/11/12 02:50:15;;;;;;;12.63;8.77;;;;;;;;;;5011012;28;20212;-63
2022/11/12 02:52:40;;;;;;;12.93;8.37;;;;;;;;;;5012074;28;20213;-63
2022/11/12 02:55:06;;;;;;;14.70;8.93;;;;;;;;;;5014335;28;20765;-63
2022/11/12 02:57:31;;;;;;;15.77;9.90;;;;;;;;;;5014965;28;20262;-63
2022/11/12 02:59:57;;;;;;;16.00;8.77;;;;;;;;;;5015749;28;20224;-63
2022/11/12 03:02:22;;;;;;;12.43;8.47;;;;;;;;;;5035040;28;20608;-63
2022/11/12 03:04:47;;;;;;;14.07;9.13;;;;;;;;;;5034770;28;20258;-63
2022/11/12 03:07:12;;;;;;;14.88;9.18;;;;;;;;;;5035197;28;20557;-63
2022/11/12 03:09:38;;;;;;;14.00;9.57;;;;;;;;;;5035542;28;20216;-63
2022/11/12 03:12:03;;;;;;;14.80;8.70;;;;;;;;;;5033857;28;20242;-63
2022/11/12 03:14:28;;;;;;;12.40;9.07;;;;;;;;;;5035235;28;20220;-63
2022/11/12 03:16:53;;;;;;;14.07;9.07;;;;;;;;;;5034281;28;20285;-63
2022/11/12 03:19:19;;;;;;;15.37;9.87;;;;;;;;;;5034722;28;20208;-63
2022/11/12 03:21:44;;;;;;;13.90;8.93;;;;;;;;;;5035104;28;20212;-63
2022/11/12 03:24:09;;;;;;;14.97;10.63;;;;;;;;;;5033818;28;20750;-63
2022/11/12 03:26:34;;;;;;;13.70;8.43;;;;;;;;;;5034914;28;20218;-63
2022/11/12 03:29:00;;;;;;;13.67;8.97;;;;;;;;;;5034672;28;20257;-63
2022/11/12 03:31:25;;;;;;;14.70;9.23;;;;;;;;;;5033847;28;20231;-63
2022/11/12 03:33:50;;;;;;;15.10;9.10;;;;;;;;;;5017027;28;20278;-63
2022/11/12 03:36:15;;;;;;;14.23;9.27;;;;;;;;;;5034259;28;20588;-63
2022/11/12 03:38:41;;;;;;;14.03;9.70;;;;;;;;;;5034148;28;20208;-63
2022/11/12 03:41:06;;;;;;;19.23;10.27;;;;;;;;;;5034321;28;20220;-63
2022/11/12 03:43:31;;;;;;;13.83;9.40;;;;;;;;;;5034476;28;20220;-63
2022/11/12 03:45:56;;;;;;;15.57;10.10;;;;;;;;;;5025199;28;20216;-62
2022/11/12 03:48:22;;;;;;;15.53;10.20;;;;;;;;;;5022892;28;20239;-62
2022/11/12 03:50:47;;;;;;;13.02;8.60;;;;;;;;;;5024465;28;20583;-62
2022/11/12 03:53:13;;;;;;;14.30;10.13;;;;;;;;;;5021592;28;20365;-62
2022/11/12 03:55:38;;;;;;;19.80;10.73;;;;;;;;;;5017280;28;20216;-63
2022/11/12 03:58:04;;;;;;;17.80;9.57;;;;;;;;;;5015790;28;20288;-62
2022/11/12 04:00:29;;;;;;;15.63;10.60;;;;;;;;;;5017196;28;20230;-62
2022/11/12 04:02:54;;;;;;;15.37;9.53;;;;;;;;;;5024051;28;20227;-62
2022/11/12 04:10:50;;;;;;;14.30;9.87;;;;;;;;;;5024247;28;20226;-62
2022/11/12 04:13:27;;;;;;;14.30;10.13;;;;;;;;;;5022246;28;20216;-62
2022/11/12 04:21:54;;;;;;;17.17;9.73;;;;;;;;;;5014880;28;20261;-62
2022/11/12 04:27:29;;;;;;;12.05;8.65;;;;;;;;;;5021916;28;20282;-62
2022/11/12 04:32:39;;;;;;;14.73;9.80;;;;;;;;;;5023589;28;20226;-62
2022/11/12 04:35:05;;;;;;;15.77;10.47;;;;;;;;;;5022589;28;20231;-63
2022/11/12 04:37:43;;;;;;;15.63;10.27;;;;;;;;;;5023828;28;21026;-62
2022/11/12 04:45:38;;;;;;;16.10;9.57;;;;;;;;;;5016347;28;20223;-63
2022/11/12 04:48:04;;;;;;;14.10;8.97;;;;;;;;;;5030718;28;20220;-63
2022/11/12 04:50:29;;;;;;;12.90;8.67;;;;;;;;;;5032533;28;20235;-62
2022/11/12 04:52:54;;;;;;;14.93;9.50;;;;;;;;;;5033214;28;20662;-62
2022/11/12 04:55:19;;;;;;;12.23;8.73;;;;;;;;;;5008452;28;20216;-62
2022/11/12 04:57:45;;;;;;;13.50;8.80;;;;;;;;;;5013512;28;20212;-62
2022/11/12 05:00:10;;;;;;;11.00;7.72;;;;;;;;;;5012930;28;20215;-62
2022/11/12 05:02:35;;;;;;;13.90;9.73;;;;;;;;;;5011379;28;20223;-62
2022/11/12 05:05:01;;;;;;;13.90;9.43;;;;;;;;;;5013138;28;20235;-63
2022/11/12 05:07:26;;;;;;;16.90;9.47;;;;;;;;;;5013396;28;20213;-62
2022/11/12 05:09:51;;;;;;;16.23;10.23;;;;;;;;;;5012898;28;20208;-62
2022/11/12 05:12:16;;;;;;;14.13;9.50;;;;;;;;;;5012911;28;20615;-62
2022/11/12 05:14:42;;;;;;;13.90;8.83;;;;;;;;;;5020813;28;20234;-62
2022/11/12 05:17:07;;;;;;;15.23;9.13;;;;;;;;;;5020899;28;20693;-62
2022/11/12 05:19:33;;;;;;;14.43;9.23;;;;;;;;;;5023135;28;20223;-62
2022/11/12 05:22:04;;;;;;;12.33;8.40;;;;;;;;;;5022557;28;20690;-62
2022/11/12 05:24:32;;;;;;;12.80;8.63;;;;;;;;;;5021750;28;20211;-62
2022/11/12 05:26:57;;;;;;;14.80;9.27;;;;;;;;;;5023394;28;20203;-62
2022/11/12 05:29:22;;;;;;;11.33;8.77;;;;;;;;;;5015758;28;20223;-62
2022/11/12 05:31:47;;;;;;;13.47;8.43;;;;;;;;;;5013961;28;20294;-62
2022/11/12 05:34:13;;;;;;;13.40;8.27;;;;;;;;;;5014211;28;20714;-62
2022/11/12 05:36:38;;;;;;;13.03;8.93;;;;;;;;;;5021735;28;20211;-62
2022/11/12 05:39:03;;;;;;;11.90;8.07;;;;;;;;;;5021695;28;20223;-63
2022/11/12 05:41:29;;;;;;;13.10;8.50;;;;;;;;;;5022495;28;20589;-63
2022/11/12 05:43:54;;;;;;;13.85;9.32;;;;;;;;;;5022351;28;20216;-62
2022/11/12 05:46:19;;;;;;;13.07;8.60;;;;;;;;;;5021478;28;20736;-62
2022/11/12 05:48:45;;;;;;;14.23;8.83;;;;;;;;;;5022423;28;20254;-62
2022/11/12 05:51:12;;;;;;;13.97;8.70;;;;;;;;;;5016300;28;20277;-62
2022/11/12 05:53:37;;;;;;;13.32;8.60;;;;;;;;;;5013391;28;20961;-62
2022/11/12 05:56:03;;;;;;;12.70;8.47;;;;;;;;;;5014226;28;20216;-63
2022/11/12 05:58:28;;;;;;;13.03;8.73;;;;;;;;;;5018679;28;20243;-62
2022/11/12 06:00:53;;;;;;;12.67;7.90;;;;;;;;;;5021433;28;20367;-62
2022/11/12 06:03:19;;;;;;;12.73;7.97;;;;;;;;;;5022085;28;20216;-62
2022/11/12 06:05:44;;;;;;;11.70;8.77;;;;;;;;;;5021445;28;20215;-62
2022/11/12 06:08:09;;;;;;;12.97;8.63;;;;;;;;;;5022061;28;20224;-62
2022/11/12 06:10:34;;;;;;;14.67;8.70;;;;;;;;;;5022151;28;20298;-62
2022/11/12 06:13:00;;;;;;;12.70;8.00;;;;;;;;;;5019564;28;20216;-62
2022/11/12 06:15:26;;;;;;;13.80;8.43;;;;;;;;;;5014048;28;20303;-62
2022/11/12 06:17:52;;;;;;;12.87;8.70;;;;;;;;;;5014329;28;20315;-62
2022/11/12 06:20:17;;;;;;;13.87;8.67;;;;;;;;;;5014429;28;20566;-62
2022/11/12 06:22:43;;;;;;;13.13;8.27;;;;;;;;;;5022058;28;20240;-62
2022/11/12 06:25:08;;;;;;;13.43;8.40;;;;;;;;;;5021615;28;20224;-62
2022/11/12 06:27:33;;;;;;;12.03;8.03;;;;;;;;;;5022652;28;20226;-62
2022/11/12 06:29:58;;;;;;;12.93;7.97;;;;;;;;;;5026182;28;20207;-62
2022/11/12 06:32:24;;;;;;;13.00;8.57;;;;;;;;;;5025519;28;20212;-63
2022/11/12 06:34:51;;;;;;;13.17;8.40;;;;;;;;;;5025645;28;20770;-62
2022/11/12 06:37:16;;;;;;;12.73;8.00;;;;;;;;;;5018753;28;20265;-62
2022/11/12 06:39:42;;;;;;;10.80;7.60;;;;;;;;;;5017723;28;20212;-62
2022/11/12 06:42:07;;;;;;;11.88;7.63;;;;;;;;;;5016864;28;20301;-62
2022/11/12 06:44:32;;;;;;;10.90;7.50;;;;;;;;;;5024466;28;20615;-62
2022/11/12 06:46:57;;;;;;;12.37;7.97;;;;;;;;;;5025369;28;20776;-62
2022/11/12 06:49:23;;;;;;;11.07;7.63;;;;;;;;;;5024603;28;20223;-62
2022/11/12 06:51:50;;;;;;;12.77;7.83;;;;;;;;;;5025642;28;20216;-63
2022/11/12 06:54:15;;;;;;;12.17;8.43;;;;;;;;;;5024616;28;20239;-62
2022/11/12 06:56:40;;;;;;;10.77;7.60;;;;;;;;;;5025310;28;20223;-62
2022/11/12 06:59:05;;;;;;;12.07;8.03;;;;;;;;;;5021187;28;20297;-62
2022/11/12 07:01:31;;;;;;;11.50;8.03;;;;;;;;;;5017470;28;20312;-62
2022/11/12 07:03:56;;;;;;;11.23;7.63;;;;;;;;;;5016705;28;20622;-62
2022/11/12 07:06:22;;;;;;;13.30;8.03;;;;;;;;;;5025040;28;20236;-62
2022/11/12 07:08:48;;;;;;;13.77;8.30;;;;;;;;;;5034552;28;20212;-63
2022/11/12 07:11:14;;;;;;;14.47;8.83;;;;;;;;;;5033302;28;20435;-62
2022/11/12 07:13:39;;;;;;;10.33;7.60;;;;;;;;;;5035306;28;20255;-60
2022/11/12 07:16:05;;;;;;;13.20;8.40;;;;;;;;;;5015252;28;20564;-62
2022/11/12 07:18:30;;;;;;;14.98;9.73;;;;;;;;;;5033340;28;20418;-62
2022/11/12 07:20:57;;;;;;;12.90;8.00;;;;;;;;;;5034503;28;20215;-63
2022/11/12 07:23:22;;;;;;;12.18;7.88;;;;;;;;;;5033098;28;20339;-62
2022/11/12 07:25:54;;;;;;;12.73;8.67;;;;;;;;;;5034408;28;20239;-63
2022/11/12 07:28:19;;;;;;;13.80;8.67;;;;;;;;;;5034023;28;20317;-62
2022/11/12 07:30:45;;;;;;;12.17;8.53;;;;;;;;;;5033534;28;20216;-62
2022/11/12 07:33:10;;;;;;;13.00;8.20;;;;;;;;;;5033282;28;20200;-62
2022/11/12 07:35:36;;;;;;;13.27;8.30;;;;;;;;;;5016414;28;20235;-62
2022/11/12 07:38:01;;;;;;;13.67;8.63;;;;;;;;;;5032836;28;20218;-62
2022/11/12 07:40:26;;;;;;;12.15;8.45;;;;;;;;;;5033379;28;20290;-62
2022/11/12 07:42:51;;;;;;;11.23;7.97;;;;;;;;;;5033978;28;20204;-62
2022/11/12 07:45:17;;;;;;;14.00;8.63;;;;;;;;;;5032342;28;20207;-62
2022/11/12 07:47:42;;;;;;;16.17;8.90;;;;;;;;;;5033438;28;20219;-62
2022/11/12 07:50:07;;;;;;;12.13;8.37;;;;;;;;;;5033530;28;20294;-62
2022/11/12 07:52:33;;;;;;;15.20;8.90;;;;;;;;;;5033859;28;20214;-63
2022/11/12 07:54:58;;;;;;;14.00;8.67;;;;;;;;;;5033978;28;20224;-63
2022/11/12 07:57:23;;;;;;;12.37;7.77;;;;;;;;;;5033400;28;20212;-63
2022/11/12 07:59:48;;;;;;;14.73;8.90;;;;;;;;;;5033347;28;20228;-65
2022/11/12 08:02:14;;;;;;;14.63;9.07;;;;;;;;;;5033299;28;20247;-64
2022/11/12 08:04:39;;;;;;;12.57;7.80;;;;;;;;;;5034037;28;20228;-64
2022/11/12 08:07:04;;;;;;;12.80;8.43;;;;;;;;;;5032559;28;20702;-63
2022/11/12 08:09:30;;;;;;;11.80;8.47;;;;;;;;;;5033850;28;20204;-64
2022/11/12 08:11:55;;;;;;;12.80;7.73;;;;;;;;;;5034064;28;20214;-63
2022/11/12 08:14:21;;;;;;;12.87;8.83;;;;;;;;;;5024491;28;20232;-64
2022/11/12 08:16:47;;;;;;;11.70;8.27;;;;;;;;;;5027989;28;20204;-65
2022/11/12 08:19:12;;;;;;;15.90;9.90;;;;;;;;;;5035084;28;20683;-64
2022/11/12 08:21:37;;;;;;;16.20;9.43;;;;;;;;;;5032984;28;20215;-64
2022/11/12 08:24:02;;;;;;;19.23;11.10;;;;;;;;;;5033456;28;20215;-64
2022/11/12 08:26:28;;;;;;;16.27;10.23;;;;;;;;;;5033368;28;20249;-64
2022/11/12 08:28:53;;;;;;;15.13;10.50;;;;;;;;;;5034027;28;21093;-65
2022/11/12 08:31:19;;;;;;;14.47;10.57;;;;;;;;;;5033283;28;20223;-65
2022/11/12 08:33:44;;;;;;;14.52;9.95;;;;;;;;;;5032507;28;20309;-65
2022/11/12 08:36:11;;;;;;;15.75;10.43;;;;;;;;;;5033230;28;20303;-65
2022/11/12 08:38:36;;;;;;;15.93;10.20;;;;;;;;;;5034017;28;20282;-65
2022/11/12 08:41:03;;;;;;;16.92;10.48;;;;;;;;;;5032459;28;20211;-65
2022/11/12 08:43:28;;;;;;;18.15;10.48;;;;;;;;;;5033527;28;20235;-65
2022/11/12 08:45:56;;;;;;;14.93;9.95;;;;;;;;;;5033627;28;20250;-65
2022/11/12 08:48:21;;;;;;;15.50;9.45;;;;;;;;;;5032081;28;20277;-65
2022/11/12 08:50:46;;;;;;;16.70;10.57;;;;;;;;;;5032840;28;20208;-65
2022/11/12 08:53:12;;;;;;;15.70;10.52;;;;;;;;;;5032326;28;20215;-65
2022/11/12 08:55:37;;;;;;;16.80;10.32;;;;;;;;;;5032599;28;20239;-65
2022/11/12 08:58:02;;;;;;;16.40;10.88;;;;;;;;;;5032993;28;20255;-65
2022/11/12 09:00:28;;;;;;;13.20;10.10;;;;;;;;;;5033167;28;20726;-65
2022/11/12 09:02:53;;;;;;;17.45;9.50;;;;;;;;;;5032391;28;20223;-65
2022/11/12 09:05:19;;;;;;;14.43;9.70;;;;;;;;;;5032377;28;20281;-65
2022/11/12 09:07:44;;;;;;;12.55;9.32;;;;;;;;;;5033259;28;20215;-65
2022/11/12 09:10:09;;;;;;;13.35;9.40;;;;;;;;;;5031901;28;20697;-65
2022/11/12 09:12:34;;;;;;;12.60;9.88;;;;;;;;;;5033178;28;20216;-65
2022/11/12 09:15:00;;;;;;;12.48;9.15;;;;;;;;;;5032838;28;20221;-65
2022/11/12 09:17:27;;;;;;;15.05;9.00;;;;;;;;;;5031575;28;20297;-65
2022/11/12 09:19:53;;;;;;;12.57;8.70;;;;;;;;;;5032668;28;20691;-65
2022/11/12 09:22:18;;;;;;;11.25;8.57;;;;;;;;;;5032459;28;20226;-65
2022/11/12 09:24:43;;;;;;;12.88;8.43;;;;;;;;;;5032175;28;20221;-65
2022/11/12 09:27:08;;;;;;;12.38;8.20;;;;;;;;;;5032395;28;20257;-65
2022/11/12 09:29:34;;;;;;;12.55;8.18;;;;;;;;;;5032960;28;20601;-65
2022/11/12 09:31:59;;;;;;;11.82;7.60;;;;;;;;;;5032140;28;20216;-65
2022/11/12 09:34:24;;;;;;;11.60;8.15;;;;;;;;;;5032014;28;20631;-65
2022/11/12 09:36:50;;;;;;;12.45;7.70;;;;;;;;;;5031884;28;20223;-65
2022/11/12 09:39:15;;;;;;;11.57;7.40;;;;;;;;;;5032125;28;20199;-65
2022/11/12 09:41:40;;;;;;;10.50;7.22;;;;;;;;;;5032732;28;20716;-64
2022/11/12 09:44:14;;;;;;;9.60;6.60;;;;;;;;;;5042256;28;20265;-65
2022/11/12 09:46:46;;;;;;;10.27;6.72;;;;;;;;;;5042930;28;20207;-65
2022/11/12 09:49:13;;;;;;;11.23;6.57;;;;;;;;;;5030862;28;20679;-65
2022/11/12 09:51:41;;;;;;;8.75;6.30;;;;;;;;;;5030369;28;20223;-65
2022/11/12 09:54:17;;;;;;;8.55;5.60;;;;;;;;;;5031879;28;20227;-64
2022/11/12 09:56:42;;;;;;;7.88;5.78;;;;;;;;;;5032631;28;20272;-64
2022/11/12 09:59:13;;;;;;;11.68;5.82;;;;;;;;;;5031092;28;20303;-65
2022/11/12 10:01:47;;;;;;;9.18;6.15;;;;;;;;;;5032204;28;20228;-65
2022/11/12 10:04:17;;;;;;;8.75;5.60;;;;;;;;;;5031740;28;20243;-65
2022/11/12 10:07:00;;;;;;;8.80;5.47;;;;;;;;;;5013863;28;20242;-65
2022/11/12 10:09:31;;;;;;;8.07;5.57;;;;;;;;;;5014208;28;20236;-65
2022/11/12 10:14:48;;;;;;;8.35;5.72;;;;;;;;;;5031812;28;20682;-65
2022/11/12 10:17:17;;;;;;;9.80;4.97;;;;;;;;;;5031465;28;20235;-64
2022/11/12 10:19:45;;;;;;;10.82;6.03;;;;;;;;;;5031295;28;20258;-65
2022/11/12 10:22:23;;;;;;;8.88;5.20;;;;;;;;;;5030423;28;20204;-64
2022/11/12 10:24:48;;;;;;;7.38;5.50;;;;;;;;;;5032385;28;20226;-64
2022/11/12 10:27:14;;;;;;;10.18;5.88;;;;;;;;;;5013279;28;20583;-64
2022/11/12 10:29:45;;;;;;;6.93;5.70;;;;;;;;;;5031072;28;20219;-64
2022/11/12 10:32:12;;;;;;;8.60;5.63;;;;;;;;;;5030490;28;20579;-64
2022/11/12 10:34:39;;;;;;;8.68;5.97;;;;;;;;;;5030025;28;20223;-64
2022/11/12 10:37:05;;;;;;;9.18;5.88;;;;;;;;;;5031460;28;20760;-65
2022/11/12 10:39:37;;;;;;;8.68;5.63;;;;;;;;;;5027344;28;20219;-65
2022/11/12 10:42:03;;;;;;;6.82;5.20;;;;;;;;;;5030936;28;20266;-65
2022/11/12 10:44:28;;;;;;;8.93;5.90;;;;;;;;;;5031920;28;20651;-65
2022/11/12 10:46:53;;;;;;;7.63;5.40;;;;;;;;;;5031947;28;20212;-65
2022/11/12 10:49:19;;;;;;;6.63;5.00;;;;;;;;;;5045998;28;20219;-65
2022/11/12 10:51:53;;;;;;;8.20;5.60;;;;;;;;;;5031641;28;20291;-65
2022/11/12 10:54:25;;;;;;;10.23;6.00;;;;;;;;;;5030566;28;20284;-65
2022/11/12 10:56:51;;;;;;;7.50;5.53;;;;;;;;;;5032017;28;20216;-65
2022/11/12 10:59:17;;;;;;;9.82;5.78;;;;;;;;;;5046761;28;20235;-65
2022/11/12 11:01:43;;;;;;;8.15;5.40;;;;;;;;;;5030894;28;20228;-65
2022/11/12 11:04:15;;;;;;;7.13;5.38;;;;;;;;;;5031195;28;20291;-65
2022/11/12 11:06:41;;;;;;;8.10;5.63;;;;;;;;;;5031508;28;20212;-65
2022/11/12 11:09:12;;;;;;;6.68;4.97;;;;;;;;;;5030620;28;20211;-65
2022/11/12 11:11:37;;;;;;;7.32;5.20;;;;;;;;;;5031949;28;20228;-65
2022/11/12 11:14:32;;;;;;;8.00;5.78;;;;;;;;;;5046627;28;20227;-65
2022/11/12 11:17:03;;;;;;;8.00;5.57;;;;;;;;;;5009051;28;20572;-65
2022/11/12 11:19:33;;;;;;;8.13;5.43;;;;;;;;;;5033166;28;20598;-65
2022/11/12 11:22:02;;;;;;;8.57;6.13;;;;;;;;;;5017113;28;20211;-65
2022/11/12 11:24:35;;;;;;;9.68;5.57;;;;;;;;;;5016396;28;20265;-66
2022/11/12 11:27:19;;;;;;;8.05;6.30;;;;;;;;;;5017272;28;20200;-66
2022/11/12 11:30:01;;;;;;;7.85;5.60;;;;;;;;;;5034240;28;20215;-66
2022/11/12 11:32:26;;;;;;;8.32;6.03;;;;;;;;;;5034790;28;20690;-66
2022/11/12 11:35:10;;;;;;;8.65;5.85;;;;;;;;;;5034794;28;20309;-66
2022/11/12 11:37:38;;;;;;;9.98;6.30;;;;;;;;;;5033489;28;20219;-66
2022/11/12 11:40:09;;;;;;;8.85;5.72;;;;;;;;;;5016550;28;20212;-66
2022/11/12 11:42:41;;;;;;;7.20;5.55;;;;;;;;;;5034775;28;20251;-66
2022/11/12 11:45:25;;;;;;;7.00;5.45;;;;;;;;;;5015842;28;20216;-66
2022/11/12 11:48:00;;;;;;;8.80;5.88;;;;;;;;;;5034794;28;20212;-66
2022/11/12 11:50:27;;;;;;;9.20;5.80;;;;;;;;;;5047347;28;20207;-66
2022/11/12 11:52:52;;;;;;;9.27;5.88;;;;;;;;;;5034389;28;20291;-66
2022/11/12 11:55:36;;;;;;;9.93;6.18;;;;;;;;;;5034214;28;20767;-65
2022/11/12 11:58:19;;;;;;;9.40;6.35;;;;;;;;;;5048615;28;20208;-66
2022/11/12 12:00:47;;;;;;;8.80;6.15;;;;;;;;;;5034361;28;20318;-66
2022/11/12 12:03:19;;;;;;;9.10;6.30;;;;;;;;;;5033836;28;20566;-66
2022/11/12 12:05:45;;;;;;;7.93;5.90;;;;;;;;;;5033737;28;20211;-66
2022/11/12 12:08:14;;;;;;;8.25;6.05;;;;;;;;;;5033624;28;20223;-66
2022/11/12 12:10:42;;;;;;;8.52;5.88;;;;;;;;;;5034393;28;20226;-66
2022/11/12 12:13:13;;;;;;;8.68;6.20;;;;;;;;;;5032975;28;20215;-66
2022/11/12 12:15:54;;;;;;;8.20;5.90;;;;;;;;;;5043571;28;20212;-66
2022/11/12 12:18:31;;;;;;;8.20;6.70;;;;;;;;;;5028950;28;20216;-66
2022/11/12 12:20:58;;;;;;;7.30;5.78;;;;;;;;;;5010817;28;20243;-66
2022/11/12 12:23:26;;;;;;;11.23;6.15;;;;;;;;;;5033223;28;20301;-66
2022/11/12 12:25:51;;;;;;;10.25;6.50;;;;;;;;;;5033017;28;20212;-66
2022/11/12 12:28:23;;;;;;;8.43;5.78;;;;;;;;;;5015864;28;20215;-66
2022/11/12 12:30:50;;;;;;;6.97;6.03;;;;;;;;;;5034063;28;20226;-66
2022/11/12 12:33:18;;;;;;;8.02;6.00;;;;;;;;;;5014767;28;20212;-66
2022/11/12 12:36:01;;;;;;;8.30;6.22;;;;;;;;;;5016296;28;20712;-66
2022/11/12 12:38:31;;;;;;;8.77;6.63;;;;;;;;;;5033343;28;20232;-66
2022/11/12 12:41:11;;;;;;;8.90;5.78;;;;;;;;;;5015141;28;20389;-66
2022/11/12 12:43:40;;;;;;;10.55;5.78;;;;;;;;;;5015770;28;20597;-66
2022/11/12 12:46:05;;;;;;;9.18;6.10;;;;;;;;;;5033181;28;20296;-66
2022/11/12 12:48:31;;;;;;;8.70;5.78;;;;;;;;;;5032935;28;20568;-66
2022/11/12 12:50:57;;;;;;;10.07;7.03;;;;;;;;;;5033670;28;20306;-66
2022/11/12 12:53:28;;;;;;;7.95;6.40;;;;;;;;;;5032779;28;20307;-66
2022/11/12 12:55:57;;;;;;;9.77;6.38;;;;;;;;;;5032739;28;20251;-66
2022/11/12 12:58:30;;;;;;;8.10;6.22;;;;;;;;;;5033028;28;20212;-66
2022/11/12 13:00:58;;;;;;;7.95;5.80;;;;;;;;;;5032549;28;20347;-66
2022/11/12 13:03:41;;;;;;;7.43;5.90;;;;;;;;;;5048324;28;20216;-66
2022/11/12 13:06:07;;;;;;;8.07;6.25;;;;;;;;;;5032858;28;20223;-66
2022/11/12 13:08:33;;;;;;;8.38;6.05;;;;;;;;;;5032471;28;20290;-66
2022/11/12 13:10:58;;;;;;;10.02;6.72;;;;;;;;;;5033057;28;20255;-66
2022/11/12 13:13:26;;;;;;;8.93;6.25;;;;;;;;;;5032504;28;20247;-65
2022/11/12 13:15:52;;;;;;;11.20;7.05;;;;;;;;;;5031949;28;20307;-65
2022/11/12 13:18:36;;;;;;;9.18;7.00;;;;;;;;;;5032326;28;20269;-66
2022/11/12 13:21:07;;;;;;;9.35;6.30;;;;;;;;;;5032521;28;20663;-66
2022/11/12 13:24:04;;;;;;;9.25;7.30;;;;;;;;;;5014239;28;20208;-66
2022/11/12 13:26:38;;;;;;;9.48;7.18;;;;;;;;;;5032368;28;20291;-65
2022/11/12 13:29:22;;;;;;;9.88;7.65;;;;;;;;;;5031767;28;20559;-66
2022/11/12 13:31:47;;;;;;;9.35;7.85;;;;;;;;;;5021457;28;20332;-65
2022/11/12 13:34:20;;;;;;;10.68;7.57;;;;;;;;;;5014154;28;20655;-65
2022/11/12 13:36:55;;;;;;;9.85;7.80;;;;;;;;;;5017813;28;20259;-65
2022/11/12 13:39:20;;;;;;;9.00;6.47;;;;;;;;;;5017389;28;20979;-65
2022/11/12 13:44:29;;;;;;;8.23;6.13;;;;;;;;;;5024161;28;20297;-65
2022/11/12 13:46:55;;;;;;;8.27;5.80;;;;;;;;;;5026024;28;20691;-65
2022/11/12 13:49:20;;;;;;;11.27;6.00;;;;;;;;;;5025965;28;20251;-65
2022/11/12 13:51:46;;;;;;;9.18;5.20;;;;;;;;;;5026073;28;20682;-65
2022/11/12 13:54:25;;;;;;;8.50;5.65;;;;;;;;;;5024545;28;20293;-65
2022/11/12 13:56:50;;;;;;;7.47;5.53;;;;;;;;;;5017092;28;20314;-65
2022/11/12 13:59:16;;;;;;;7.93;5.88;;;;;;;;;;5017443;28;20221;-65
2022/11/12 14:01:41;;;;;;;6.65;4.90;;;;;;;;;;5019585;28;20675;-65
2022/11/12 14:04:07;;;;;;;8.32;5.60;;;;;;;;;;5023631;28;20228;-65
2022/11/12 14:06:34;;;;;;;10.13;5.90;;;;;;;;;;5026046;28;20211;-65
2022/11/12 14:09:15;;;;;;;8.23;5.40;;;;;;;;;;5025156;28;20211;-65
2022/11/12 14:11:53;;;;;;;7.57;5.35;;;;;;;;;;5025351;28;20467;-65
2022/11/12 14:14:22;;;;;;;8.00;5.47;;;;;;;;;;5026017;28;20227;-65
2022/11/12 14:17:00;;;;;;;8.32;4.97;;;;;;;;;;5025661;28;20682;-65
2022/11/12 14:19:44;;;;;;;7.85;4.95;;;;;;;;;;5018133;28;20216;-65
2022/11/12 14:22:13;;;;;;;7.88;5.10;;;;;;;;;;5017507;28;20226;-65
2022/11/12 14:24:38;;;;;;;8.02;5.53;;;;;;;;;;5019434;28;20216;-65
2022/11/12 14:27:03;;;;;;;8.13;5.22;;;;;;;;;;5024102;28;20226;-65
2022/11/12 14:29:29;;;;;;;9.15;5.78;;;;;;;;;;5026163;28;20219;-65
2022/11/12 14:31:59;;;;;;;9.90;5.28;;;;;;;;;;5027703;28;20235;-65
2022/11/12 14:34:26;;;;;;;8.27;5.45;;;;;;;;;;5029105;28;20298;-65
2022/11/12 14:36:54;;;;;;;8.85;5.57;;;;;;;;;;5031873;28;20223;-65
2022/11/12 14:39:20;;;;;;;7.70;5.75;;;;;;;;;;5030581;28;20258;-65
2022/11/12 14:41:47;;;;;;;9.63;5.70;;;;;;;;;;5020124;28;20251;-65
2022/11/12 14:44:15;;;;;;;9.27;5.68;;;;;;;;;;5011826;28;20811;-65
2022/11/12 14:46:47;;;;;;;8.90;5.90;;;;;;;;;;5018100;28;20574;-65
2022/11/12 14:49:24;;;;;;;9.43;5.65;;;;;;;;;;5015459;28;20687;-65
2022/11/12 14:51:51;;;;;;;8.05;5.35;;;;;;;;;;5018064;28;20211;-65
2022/11/12 14:54:24;;;;;;;10.68;6.18;;;;;;;;;;5034362;28;20254;-65
2022/11/12 14:56:50;;;;;;;7.85;5.60;;;;;;;;;;5017743;28;20211;-65
2022/11/12 14:59:15;;;;;;;8.55;5.97;;;;;;;;;;5035248;28;20583;-65
2022/11/12 15:01:59;;;;;;;10.27;5.72;;;;;;;;;;5032633;28;20310;-65
2022/11/12 15:04:25;;;;;;;9.07;5.55;;;;;;;;;;5035072;28;20239;-65